Atlantic Elm — 9HA3054 — position and weather

sailwx.info

Track history (hours):
 
Tides and Currents Weather Stations Pressure Air Temp Water Temp Dewpoint Dewpoint Depression Visibility Wind Speed Wind Dir Waves Ship Positions

Atlantic Elm

Last reported at 2017-Aug-13 04:59 UTC. Time now 2017-Aug-21 10:06 UTC.
Position N 40°27' E 027°09'.
Warning: this ship's position is 8 days out of date.

Length 190 m; draft 8.7 m.

Type: Cargo ship. MMSI: 229081000.

Date/timePositionNaut miles runAvg speedWind from/ knotsBaromVisibWave heightAir tempDewpointWater temp
2017-Aug-13 04:59N 40°27' E 027°09'0 0.0
2017-Aug-13 04:24N 40°27' E 027°09'  
2017-Aug-07 00:38N 37°18' E 023°58'212.9
2017-Aug-07 00:29N 37°16' E 023°57'10811.2
2017-Aug-06 14:51N 36°04' E 022°17'1613.5
2017-Aug-06 13:41N 36°04' E 021°57'213.5
2017-Aug-06 13:30N 36°04' E 021°54'1213.5
2017-Aug-06 12:37N 36°05' E 021°40'113.5
2017-Aug-06 12:30N 36°05' E 021°38'713.3
2017-Aug-06 12:00N 36°05' E 021°29'813.2
2017-Aug-06 11:24N 36°06' E 021°20'613.2
2017-Aug-06 10:57N 36°06' E 021°12'613.1
2017-Aug-06 10:30N 36°06' E 021°05'713.1
2017-Aug-06 10:00N 36°06' E 020°57'813.1
2017-Aug-06 09:24N 36°07' E 020°47'1213.2
2017-Aug-06 08:30N 36°07' E 020°32'813.2
2017-Aug-06 07:55N 36°07' E 020°23'713.2
2017-Aug-06 07:24N 36°07' E 020°14'8213.1
2017-Aug-06 01:07N 36°10' E 018°33'213.3
2017-Aug-06 01:00N 36°10' E 018°31'713.3
2017-Aug-06 00:29N 36°10' E 018°22'613.3
2017-Aug-06 00:00N 36°11' E 018°14'11613.3
2017-Aug-05 15:16N 36°15' E 015°50'412.5
2017-Aug-05 14:58N 36°15' E 015°46'2813.0
2017-Aug-05 12:49N 36°14' E 015°11'413.9
2017-Aug-05 12:30N 36°15' E 015°06'713.9
2017-Aug-05 12:00N 36°17' E 014°57'713.9
2017-Aug-05 11:30N 36°20' E 014°50'713.6
2017-Aug-05 11:00N 36°22' E 014°42'713.5
2017-Aug-05 10:30N 36°24' E 014°34'713.1
2017-Aug-05 10:00N 36°26' E 014°26'713.3
2017-Aug-05 09:30N 36°28' E 014°18'713.1
2017-Aug-05 09:00N 36°30' E 014°10'713.2
2017-Aug-05 08:30N 36°33' E 014°03'713.2
2017-Aug-05 08:00N 36°35' E 013°55'713.3
2017-Aug-05 07:30N 36°38' E 013°48'713.2
2017-Aug-05 07:01N 36°40' E 013°40'713.4
2017-Aug-05 06:30N 36°42' E 013°32'713.3
2017-Aug-05 06:00N 36°44' E 013°24'612.9
2017-Aug-05 05:30N 36°46' E 013°16'612.7
2017-Aug-05 05:00N 36°48' E 013°09'612.4
2017-Aug-05 04:30N 36°50' E 013°02'612.4
2017-Aug-05 04:00N 36°53' E 012°55'612.5
2017-Aug-05 03:30N 36°55' E 012°47'612.4
2017-Aug-05 03:00N 36°57' E 012°40'612.3
2017-Aug-05 02:29N 36°58' E 012°32'5812.6
2017-Aug-04 21:54N 37°17' E 011°24'512.6
2017-Aug-04 21:30N 37°20' E 011°18'2612.6
2017-Aug-04 19:25N 37°28' E 010°47'512.2
2017-Aug-04 19:00N 37°29' E 010°41'612.4
2017-Aug-04 18:30N 37°30' E 010°33'712.3
2017-Aug-04 17:57N 37°31' E 010°25'712.1
2017-Aug-04 17:22N 37°33' E 010°16'612.2
2017-Aug-04 16:54N 37°34' E 010°09'5012.3
2017-Aug-04 12:52N 37°37' E 009°06'612.5
2017-Aug-04 12:22N 37°38' E 008°58'9913.1
2017-Aug-04 04:48N 37°40' E 006°53'512.9
2017-Aug-04 04:27N 37°40' E 006°47'713.0
2017-Aug-04 03:53N 37°41' E 006°38'513.1
2017-Aug-04 03:30N 37°41' E 006°32'3513.0
2017-Aug-04 00:51N 37°42' E 005°48'813.1
2017-Aug-04 00:13N 37°42' E 005°38'313.2
2017-Aug-04 00:00N 37°42' E 005°34'713.3
2017-Aug-03 23:31N 37°42' E 005°26'713.4
2017-Aug-03 23:00N 37°43' E 005°17'713.3
2017-Aug-03 22:30N 37°43' E 005°09'613.0
2017-Aug-03 22:00N 37°42' E 005°01'612.9
2017-Aug-03 21:31N 37°40' E 004°53'712.9
2017-Aug-03 21:00N 37°39' E 004°45'612.9
2017-Aug-03 20:30N 37°37' E 004°37'712.8
2017-Aug-03 20:00N 37°36' E 004°29'912.7
2017-Aug-03 19:19N 37°34' E 004°18'612.7
2017-Aug-03 18:52N 37°32' E 004°11'512.8
2017-Aug-03 18:30N 37°31' E 004°05'612.8
2017-Aug-03 18:00N 37°30' E 003°57'612.9
2017-Aug-03 17:30N 37°29' E 003°50'612.8
2017-Aug-03 17:00N 37°27' E 003°42'612.6
2017-Aug-03 16:30N 37°26' E 003°34'712.6
2017-Aug-03 15:58N 37°24' E 003°26'612.7
2017-Aug-03 15:30N 37°22' E 003°19'813.0
2017-Aug-03 14:54N 37°21' E 003°09'1213.0
2017-Aug-03 14:00N 37°18' E 002°55'612.8
2017-Aug-03 13:30N 37°17' E 002°47'612.7
2017-Aug-03 13:00N 37°15' E 002°39'612.8
2017-Aug-03 12:30N 37°14' E 002°31'613.0
2017-Aug-03 12:01N 37°12' E 002°23'713.0
2017-Aug-03 11:29N 37°11' E 002°15'613.1
2017-Aug-03 11:00N 37°09' E 002°07'613.1
2017-Aug-03 10:30N 37°08' E 001°59'612.9
2017-Aug-03 10:00N 37°07' E 001°51'713.0
2017-Aug-03 09:29N 37°05' E 001°43'1013.1
2017-Aug-03 08:45N 37°03' E 001°32'413.1
2017-Aug-03 08:28N 37°02' E 001°27'713.1
2017-Aug-03 07:56N 37°01' E 001°19'613.6
2017-Aug-03 07:28N 36°59' E 001°11'613.7
2017-Aug-03 07:00N 36°58' E 001°03'713.5
2017-Aug-03 06:30N 36°56' E 000°55'713.4
2017-Aug-03 06:00N 36°55' E 000°47'713.3
2017-Aug-03 05:30N 36°53' E 000°39'  
Track history (hours):
 
Tides and Currents Weather Stations Pressure Air Temp Water Temp Dewpoint Dewpoint Depression Visibility Wind Speed Wind Dir Waves Ship Positions

Atlantic Elm

Last reported at 2017-Aug-13 04:59 UTC. Time now 2017-Aug-21 10:06 UTC.
Position N 40°27' E 027°09'.
Warning: this ship's position is 8 days out of date.

Length 190 m; draft 8.7 m.

Type: Cargo ship. MMSI: 229081000.

Date/timePositionNaut miles runAvg speedWind from/ knotsBaromVisibWave heightAir tempDewpointWater temp
2017-Aug-13 04:59N 40°27' E 027°09'0 0.0
2017-Aug-13 04:24N 40°27' E 027°09'  
2017-Aug-07 00:38N 37°18' E 023°58'212.9
2017-Aug-07 00:29N 37°16' E 023°57'10811.2
2017-Aug-06 14:51N 36°04' E 022°17'1613.5
2017-Aug-06 13:41N 36°04' E 021°57'213.5
2017-Aug-06 13:30N 36°04' E 021°54'1213.5
2017-Aug-06 12:37N 36°05' E 021°40'113.5
2017-Aug-06 12:30N 36°05' E 021°38'713.3
2017-Aug-06 12:00N 36°05' E 021°29'813.2
2017-Aug-06 11:24N 36°06' E 021°20'613.2
2017-Aug-06 10:57N 36°06' E 021°12'613.1
2017-Aug-06 10:30N 36°06' E 021°05'713.1
2017-Aug-06 10:00N 36°06' E 020°57'813.1
2017-Aug-06 09:24N 36°07' E 020°47'1213.2
2017-Aug-06 08:30N 36°07' E 020°32'813.2
2017-Aug-06 07:55N 36°07' E 020°23'713.2
2017-Aug-06 07:24N 36°07' E 020°14'8213.1
2017-Aug-06 01:07N 36°10' E 018°33'213.3
2017-Aug-06 01:00N 36°10' E 018°31'713.3
2017-Aug-06 00:29N 36°10' E 018°22'613.3
2017-Aug-06 00:00N 36°11' E 018°14'11613.3
2017-Aug-05 15:16N 36°15' E 015°50'412.5
2017-Aug-05 14:58N 36°15' E 015°46'2813.0
2017-Aug-05 12:49N 36°14' E 015°11'413.9
2017-Aug-05 12:30N 36°15' E 015°06'713.9
2017-Aug-05 12:00N 36°17' E 014°57'713.9
2017-Aug-05 11:30N 36°20' E 014°50'713.6
2017-Aug-05 11:00N 36°22' E 014°42'713.5
2017-Aug-05 10:30N 36°24' E 014°34'713.1
2017-Aug-05 10:00N 36°26' E 014°26'713.3
2017-Aug-05 09:30N 36°28' E 014°18'713.1
2017-Aug-05 09:00N 36°30' E 014°10'713.2
2017-Aug-05 08:30N 36°33' E 014°03'713.2
2017-Aug-05 08:00N 36°35' E 013°55'713.3
2017-Aug-05 07:30N 36°38' E 013°48'713.2
2017-Aug-05 07:01N 36°40' E 013°40'713.4
2017-Aug-05 06:30N 36°42' E 013°32'713.3
2017-Aug-05 06:00N 36°44' E 013°24'612.9
2017-Aug-05 05:30N 36°46' E 013°16'612.7
2017-Aug-05 05:00N 36°48' E 013°09'612.4
2017-Aug-05 04:30N 36°50' E 013°02'612.4
2017-Aug-05 04:00N 36°53' E 012°55'612.5
2017-Aug-05 03:30N 36°55' E 012°47'612.4
2017-Aug-05 03:00N 36°57' E 012°40'612.3
2017-Aug-05 02:29N 36°58' E 012°32'5812.6
2017-Aug-04 21:54N 37°17' E 011°24'512.6
2017-Aug-04 21:30N 37°20' E 011°18'2612.6
2017-Aug-04 19:25N 37°28' E 010°47'512.2
2017-Aug-04 19:00N 37°29' E 010°41'612.4
2017-Aug-04 18:30N 37°30' E 010°33'712.3
2017-Aug-04 17:57N 37°31' E 010°25'712.1
2017-Aug-04 17:22N 37°33' E 010°16'612.2
2017-Aug-04 16:54N 37°34' E 010°09'5012.3
2017-Aug-04 12:52N 37°37' E 009°06'612.5
2017-Aug-04 12:22N 37°38' E 008°58'9913.1
2017-Aug-04 04:48N 37°40' E 006°53'512.9
2017-Aug-04 04:27N 37°40' E 006°47'713.0
2017-Aug-04 03:53N 37°41' E 006°38'513.1
2017-Aug-04 03:30N 37°41' E 006°32'3513.0
2017-Aug-04 00:51N 37°42' E 005°48'813.1
2017-Aug-04 00:13N 37°42' E 005°38'313.2
2017-Aug-04 00:00N 37°42' E 005°34'713.3
2017-Aug-03 23:31N 37°42' E 005°26'713.4
2017-Aug-03 23:00N 37°43' E 005°17'713.3
2017-Aug-03 22:30N 37°43' E 005°09'613.0
2017-Aug-03 22:00N 37°42' E 005°01'612.9
2017-Aug-03 21:31N 37°40' E 004°53'712.9
2017-Aug-03 21:00N 37°39' E 004°45'612.9
2017-Aug-03 20:30N 37°37' E 004°37'712.8
2017-Aug-03 20:00N 37°36' E 004°29'912.7
2017-Aug-03 19:19N 37°34' E 004°18'612.7
2017-Aug-03 18:52N 37°32' E 004°11'512.8
2017-Aug-03 18:30N 37°31' E 004°05'612.8
2017-Aug-03 18:00N 37°30' E 003°57'612.9
2017-Aug-03 17:30N 37°29' E 003°50'612.8
2017-Aug-03 17:00N 37°27' E 003°42'612.6
2017-Aug-03 16:30N 37°26' E 003°34'712.6
2017-Aug-03 15:58N 37°24' E 003°26'612.7
2017-Aug-03 15:30N 37°22' E 003°19'813.0
2017-Aug-03 14:54N 37°21' E 003°09'1213.0
2017-Aug-03 14:00N 37°18' E 002°55'612.8
2017-Aug-03 13:30N 37°17' E 002°47'612.7
2017-Aug-03 13:00N 37°15' E 002°39'612.8
2017-Aug-03 12:30N 37°14' E 002°31'613.0
2017-Aug-03 12:01N 37°12' E 002°23'713.0
2017-Aug-03 11:29N 37°11' E 002°15'613.1
2017-Aug-03 11:00N 37°09' E 002°07'613.1
2017-Aug-03 10:30N 37°08' E 001°59'612.9
2017-Aug-03 10:00N 37°07' E 001°51'713.0
2017-Aug-03 09:29N 37°05' E 001°43'1013.1
2017-Aug-03 08:45N 37°03' E 001°32'413.1
2017-Aug-03 08:28N 37°02' E 001°27'713.1
2017-Aug-03 07:56N 37°01' E 001°19'613.6
2017-Aug-03 07:28N 36°59' E 001°11'613.7
2017-Aug-03 07:00N 36°58' E 001°03'713.5
2017-Aug-03 06:30N 36°56' E 000°55'713.4
2017-Aug-03 06:00N 36°55' E 000°47'713.3
2017-Aug-03 05:30N 36°53' E 000°39'  

Dump ship's entire track history